Orbital elements of SAUDICOMSAT 2
| Launched | 28 June 2004 |
| Flight ended | – |
| Launch site | Tyuratam Missile and Space Center, Kazakhstan (Also known as Baikonur Cosmodrome) |
| Owner | Saudi Arabia |
| NORAD ID | 28370 |
| Date fetched |
Epoch osculation |
Inc. [°] |
Ecc. | RA asc node [hr] |
Arg Peri. [°] |
Mean anom [°] |
Mean motion [rev/day] |
Abs. mag |
| Date fetched |
Epoch osculation |
Inc. [°] |
Ecc. | RA asc node [hr] |
Arg Peri. [°] |
Mean anom [°] |
Mean motion [rev/day] |
Abs. mag |
| 2026 May 08 17:57 | 2026 May 07 23:06:56 | 98.6657 | 0.00558 | 9.2713 | 22.5784 | 337.7849 | 14.49956 | – |
| 2026 May 07 17:58 | 2026 May 07 06:33:14 | 98.6658 | 0.00559 | 9.2240 | 24.6541 | 337.7849 | 14.49956 | – |
| 2026 May 06 17:57 | 2026 May 06 10:40:47 | 98.6658 | 0.00559 | 9.1672 | 27.1338 | 337.7849 | 14.49956 | – |
| 2026 May 05 17:57 | 2026 May 04 23:54:01 | 98.6658 | 0.00560 | 9.0679 | 31.4670 | 337.7849 | 14.49956 | – |
| 2026 May 04 17:57 | 2026 May 03 14:46:36 | 98.6659 | 0.00561 | 8.9733 | 35.5929 | 337.7849 | 14.49956 | – |
| 2026 May 03 17:57 | 2026 May 03 11:27:51 | 98.6659 | 0.00561 | 8.9638 | 36.0059 | 337.7849 | 14.49956 | – |
| 2026 May 02 17:57 | 2026 May 01 23:01:42 | 98.6660 | 0.00562 | 8.8597 | 40.5285 | 337.7849 | 14.49956 | – |
| 2026 May 01 17:56 | 2026 May 01 11:26:06 | 98.6660 | 0.00562 | 8.8266 | 41.9705 | 337.7849 | 14.49956 | – |
| 2026 Apr 30 17:56 | 2026 Apr 30 07:16:48 | 98.6661 | 0.00563 | 8.7462 | 45.4669 | 337.7849 | 14.49956 | – |
| 2026 Apr 29 17:57 | 2026 Apr 29 13:03:43 | 98.6662 | 0.00563 | 8.6941 | 47.7279 | 337.7849 | 14.49956 | – |
| 2026 Apr 28 17:56 | 2026 Apr 28 10:33:47 | 98.6663 | 0.00564 | 8.6184 | 51.0228 | 337.7849 | 14.49956 | – |
| 2026 Apr 27 17:58 | 2026 Apr 27 06:24:28 | 98.6664 | 0.00564 | 8.5380 | 54.5190 | 337.7849 | 14.49956 | – |
| 2026 Apr 26 17:58 | 2026 Apr 25 22:56:25 | 98.6665 | 0.00564 | 8.4481 | 58.4242 | 337.7849 | 14.49956 | – |
| 2026 Apr 25 17:58 | 2026 Apr 25 11:20:49 | 98.6666 | 0.00565 | 8.4150 | 59.8765 | 337.7849 | 14.49956 | – |
| 2026 Apr 24 17:59 | 2026 Apr 23 22:54:38 | 98.6667 | 0.00565 | 8.3109 | 64.3859 | 337.7849 | 14.49956 | – |
| 2026 Apr 23 17:57 | 2026 Apr 22 23:43:26 | 98.6668 | 0.00565 | 8.2447 | 67.2482 | 337.7849 | 14.49956 | – |
| 2026 Apr 22 17:57 | 2026 Apr 21 22:52:52 | 98.6669 | 0.00566 | 8.1737 | 70.3223 | 337.7849 | 14.49956 | – |
| 2026 Apr 21 17:57 | 2026 Apr 21 06:19:09 | 98.6670 | 0.00566 | 8.1264 | 72.3703 | 337.7849 | 14.49956 | – |
| 2026 Apr 20 17:57 | 2026 Apr 19 22:51:05 | 98.6671 | 0.00566 | 8.0365 | 76.2553 | 337.7849 | 14.49956 | – |
| 2026 Apr 19 17:58 | 2026 Apr 19 06:17:22 | 98.6671 | 0.00566 | 7.9892 | 78.3030 | 337.7849 | 14.49956 | – |
| 2026 Apr 18 17:56 | 2026 Apr 18 07:06:09 | 98.6671 | 0.00567 | 7.9229 | 81.1560 | 337.7849 | 14.49956 | – |
| 2026 Apr 16 17:57 | 2026 Apr 16 07:04:22 | 98.6672 | 0.00567 | 7.7857 | 87.0865 | 337.7849 | 14.49956 | – |
| 2026 Apr 14 17:57 | 2026 Apr 14 12:00:41 | 98.6673 | 0.00567 | 7.6627 | 92.4098 | 337.7849 | 14.49956 | – |
| 2026 Apr 13 17:57 | 2026 Apr 13 06:12:00 | 98.6674 | 0.00567 | 7.5775 | 96.0939 | 337.7849 | 14.49956 | – |
| 2026 Apr 12 17:57 | 2026 Apr 12 11:58:54 | 98.6674 | 0.00567 | 7.5255 | 98.3432 | 337.7849 | 14.49956 | – |
| 2026 Apr 11 17:57 | 2026 Apr 11 11:08:19 | 98.6675 | 0.00567 | 7.4545 | 101.4146 | 337.7849 | 14.49956 | – |